Latest Weather Observations for Roseworthy

IDS60901

Issued at 6:11 pm CST Thursday 3 September 2015 (issued every 10 minutes, with the page automatically refreshed every 10 minutes)

About weather observations | Map of Adelaide area stations | Latest observations for Adelaide area | Other Formats
Station Details ID: 023122 Name: ROSEWORTHY AWS Lat: -34.51 Lon: 138.68 Height: 65.0 m
Data from the previous 72 hours. | See also: Recent months at Roseworthy
Date/Time
CST
Tmp

°C
App
Tmp
°C
Dew
Point
°C
Rel
Hum
%
Delta-T

°C
Wind Press
QNH
hPa
Press
MSL
hPa
Rain
since
9 am
mm
Dir
 
Spd
km/h
Gust
km/h
Spd
kts
Gust
kts
03/06:00pm 11.6 8.3 9.5 87 1.1 SSW 17 22 9 12 1023.6 1023.7 0.6
03/05:30pm 12.5 8.7 9.9 84 1.3 SSW 20 32 11 17 1023.1 - 0.6
03/05:00pm 13.1 9.1 10.3 83 1.5 SSW 22 32 12 17 1022.7 - 0.6
03/04:30pm 13.6 10.1 10.8 83 1.5 SW 20 32 11 17 1022.4 - 0.6
03/04:00pm 13.6 9.9 10.2 80 1.8 SSW 20 28 11 15 1022.1 - 0.6
03/03:30pm 13.7 10.8 11.0 84 1.4 SW 17 22 9 12 1021.8 - 0.6
03/03:00pm 13.6 9.6 10.4 81 1.7 SSW 22 32 12 17 1021.4 1021.5 0.6
03/02:30pm 13.1 9.6 10.8 86 1.2 SW 20 30 11 16 1021.3 - 0.6
03/02:00pm 12.9 8.9 10.4 85 1.3 SW 22 28 12 15 1021.0 - 0.6
03/01:30pm 13.2 9.9 10.9 86 1.2 SW 19 30 10 16 1020.8 - 0.6
03/01:00pm 13.5 11.1 11.4 87 1.1 SW 15 20 8 11 1020.9 - 0.6
03/12:30pm 13.9 11.3 10.7 81 1.7 SSW 15 20 8 11 1021.1 - 0.6
03/12:00pm 14.3 11.0 11.6 84 1.4 SSW 20 28 11 15 1021.0 1021.1 0.6
03/11:30am 13.3 10.2 11.5 89 1.0 SSW 19 28 10 15 1021.0 - 0.6
03/11:00am 13.6 9.2 10.4 81 1.7 SW 24 35 13 19 1020.7 - 0.0
03/10:30am 13.9 10.6 10.9 82 1.6 SW 19 26 10 14 1020.5 - 0.0
03/10:00am 13.8 10.2 10.4 80 1.8 SSW 20 30 11 16 1020.1 - 0.0
03/09:30am 13.4 9.8 10.6 83 1.5 SSW 20 28 11 15 1019.8 - 0.0
03/09:00am 13.2 9.8 10.7 85 1.3 SW 19 26 10 14 1019.3 1019.4 6.0
03/08:30am 12.8 10.2 10.7 87 1.1 SW 15 20 8 11 1018.8 - 6.0
03/08:00am 12.0 9.3 10.4 90 0.8 SW 15 24 8 13 1018.1 - 6.0
03/07:30am 11.6 9.3 10.3 92 0.7 SW 13 19 7 10 1017.3 - 6.0
03/07:00am 11.4 8.2 10.0 91 0.7 SW 17 24 9 13 1016.6 - 6.0
03/06:30am 11.3 8.1 10.0 92 0.7 WSW 17 26 9 14 1016.1 - 6.0
03/06:00am 10.6 8.0 9.5 93 0.6 W 13 17 7 9 1015.7 1015.8 6.0
03/05:30am 10.3 8.4 9.1 92 0.6 WSW 9 13 5 7 1015.0 - 6.0
03/05:00am 10.1 8.2 8.9 92 0.6 WSW 9 13 5 7 1014.4 - 6.0
03/04:30am 10.1 8.1 8.7 91 0.7 WSW 9 11 5 6 1014.0 - 6.0
03/04:00am 10.2 7.1 8.8 91 0.7 WSW 15 20 8 11 1013.7 - 6.0
03/03:30am 9.4 6.5 8.2 92 0.6 WSW 13 19 7 10 1013.0 - 6.0
03/03:00am 8.1 5.3 6.9 92 0.6 WSW 11 17 6 9 1012.7 1012.7 6.0
03/02:30am 7.9 5.3 6.2 89 0.8 W 9 11 5 6 1012.4 - 6.0
03/02:00am 9.4 6.0 7.7 89 0.8 SW 15 20 8 11 1012.1 - 6.0
03/01:30am 9.5 6.6 8.3 92 0.6 SW 13 17 7 9 1011.8 - 6.0
03/01:00am 8.4 5.3 7.3 93 0.5 WSW 13 15 7 8 1011.5 - 6.0
03/12:30am 7.8 4.2 6.6 92 0.6 WSW 15 17 8 9 1011.3 - 6.0
03/12:00am 8.0 5.8 6.3 89 0.8 SW 7 9 4 5 1010.2 1010.2 6.0
 
Date/Time
CST
Tmp

°C
App
Tmp
°C
Dew
Point
°C
Rel
Hum
%
Delta-T

°C
Wind Press
QNH
hPa
Press
MSL
hPa
Rain
since
9 am
mm
Dir
 
Spd
km/h
Gust
km/h
Spd
kts
Gust
kts
02/11:30pm 9.0 5.6 7.5 90 0.7 SSW 15 20 8 11 1009.8 - 6.0
02/11:00pm 9.4 5.5 7.3 87 1.0 SSW 17 22 9 12 1009.1 - 6.0
02/10:30pm 10.4 5.0 8.2 86 1.1 SSW 26 37 14 20 1009.0 - 6.0
02/10:00pm 10.0 6.0 8.1 88 0.9 SSW 19 28 10 15 1008.2 - 6.0
02/09:30pm 9.8 5.6 8.1 89 0.8 SSW 20 28 11 15 1007.2 - 6.0
02/09:00pm 10.1 6.0 8.5 90 0.8 SSW 20 32 11 17 1006.2 1006.3 5.8
02/08:30pm 9.9 6.0 8.5 91 0.7 SSW 19 26 10 14 1005.0 - 5.8
02/08:00pm 10.4 6.6 9.2 92 0.6 SSW 19 28 10 15 1003.8 - 5.8
02/07:30pm 10.6 7.6 9.4 92 0.6 S 15 20 8 11 1002.8 - 5.6
02/07:00pm 10.8 8.9 9.2 90 0.8 SSE 9 13 5 7 1001.8 - 5.4
02/06:30pm 10.8 8.2 9.4 91 0.7 SE 13 22 7 12 1000.9 - 5.2
02/06:00pm 10.8 8.2 9.2 90 0.8 NNE 13 13 7 7 1000.1 1000.1 5.2
02/05:30pm 11.1 7.8 9.4 89 0.9 N 17 22 9 12 999.6 - 5.2
02/05:00pm 11.4 5.6 9.3 87 1.1 N 30 41 16 22 999.4 - 5.2
02/04:30pm 11.4 7.1 9.5 88 1.0 NNE 22 32 12 17 999.3 - 5.2
02/04:00pm 11.1 6.1 9.4 89 0.9 N 26 35 14 19 999.6 - 4.0
02/03:30pm 11.6 6.5 9.3 86 1.2 N 26 37 14 20 999.9 - 3.6
02/03:00pm 11.6 7.8 9.7 88 1.0 N 20 28 11 15 1000.3 1000.3 3.4
02/02:30pm 11.0 6.6 8.9 87 1.0 N 22 28 12 15 1000.8 - 3.0
02/02:00pm 11.6 6.3 8.5 81 1.5 N 26 37 14 20 1001.0 - 1.6
02/01:30pm 11.8 6.0 8.1 78 1.8 N 28 43 15 23 1001.3 - 1.6
02/01:10pm 11.6 5.6 8.5 81 1.5 NNW 30 48 16 26 1001.7 - 1.4
02/01:00pm 12.1 5.6 8.0 76 2.0 NNW 32 43 17 23 1001.9 - 1.4
02/12:31pm 12.6 5.8 7.9 73 2.3 NNW 33 52 18 28 1002.4 - 1.4
02/12:30pm 12.8 6.1 8.1 73 2.3 NNW 33 44 18 24 1002.4 - 1.4
02/12:02pm 13.4 7.6 9.5 77 2.0 NNW 30 48 16 26 1002.8 - 1.4
02/12:00pm 13.8 8.8 11.0 83 1.5 NNW 28 37 15 20 1002.8 1002.9 1.4
02/11:30am 11.5 6.2 8.5 82 1.5 NNW 26 33 14 18 1003.4 - 0.2
02/11:00am 13.2 7.2 8.7 74 2.3 N 30 43 16 23 1003.8 - 0.0
02/10:30am 13.1 7.4 8.4 73 2.3 N 28 37 15 20 1004.1 - 0.0
02/10:00am 13.4 6.9 8.9 74 2.3 N 33 46 18 25 1004.5 - 0.0
02/09:30am 13.0 7.0 8.7 75 2.2 N 30 39 16 21 1005.1 - 0.0
02/09:00am 12.1 5.6 8.2 77 1.9 N 32 43 17 23 1005.3 1005.4 3.6
02/08:30am 11.6 6.7 8.3 80 1.6 N 24 33 13 18 1005.2 - 3.6
02/08:00am 10.3 6.2 7.7 84 1.3 N 19 24 10 13 1005.2 - 3.6
02/07:30am 9.2 5.2 6.8 85 1.1 N 17 22 9 12 1005.3 - 3.6
02/07:00am 9.1 5.5 6.7 85 1.1 N 15 20 8 11 1005.5 - 3.6
02/06:30am 9.0 5.5 7.1 88 0.9 N 15 19 8 10 1005.5 - 3.6
02/06:00am 9.5 6.0 7.3 86 1.0 N 15 20 8 11 1005.1 1005.2 3.6
02/05:30am 10.0 5.8 7.3 83 1.3 N 19 24 10 13 1005.1 - 3.6
02/05:00am 10.1 5.8 7.7 85 1.2 N 20 24 11 13 1005.5 - 3.6
02/04:30am 10.2 6.1 8.0 86 1.1 NNE 19 24 10 13 1005.2 - 3.6
02/04:00am 10.3 6.3 8.2 87 1.0 N 19 22 10 12 1005.8 - 3.6
02/03:30am 10.3 6.3 8.2 87 1.0 N 19 24 10 13 1005.5 - 3.6
02/03:00am 10.7 5.4 8.6 87 1.0 N 26 35 14 19 1006.2 1006.3 3.2
02/02:30am 11.0 6.4 8.2 83 1.4 N 22 30 12 16 1006.5 - 2.6
02/02:00am 10.9 7.0 8.7 86 1.1 N 19 26 10 14 1006.9 - 2.6
02/01:30am 10.3 7.4 8.1 86 1.1 N 13 19 7 10 1007.1 - 2.4
02/01:00am 10.3 6.6 8.1 86 1.1 NNE 17 22 9 12 1007.1 - 2.4
02/12:30am 10.4 7.5 8.3 87 1.0 NE 13 19 7 10 1007.4 - 2.0
02/12:00am 10.8 6.9 8.6 86 1.1 N 19 24 10 13 1007.9 1007.9 1.0
 
Date/Time
CST
Tmp

°C
App
Tmp
°C
Dew
Point
°C
Rel
Hum
%
Delta-T

°C
Wind Press
QNH
hPa
Press
MSL
hPa
Rain
since
9 am
mm
Dir
 
Spd
km/h
Gust
km/h
Spd
kts
Gust
kts
01/11:30pm 11.7 7.6 7.8 77 1.9 N 19 30 10 16 1008.1 - 0.2
01/11:00pm 13.7 8.4 5.1 56 4.0 N 22 30 12 16 1007.6 - 0.0
01/10:30pm 13.8 8.6 5.4 57 4.0 NNE 22 32 12 17 1007.4 - 0.0
01/10:00pm 13.8 9.0 5.4 57 4.0 NNE 20 30 11 16 1007.3 - 0.0
01/09:30pm 13.0 8.0 4.7 57 3.8 NNE 20 24 11 13 1007.3 - 0.0
01/09:00pm 12.7 7.2 3.9 55 4.0 NE 22 30 12 16 1007.0 1007.1 0.0
01/08:30pm 12.4 6.4 3.6 55 3.9 NE 24 30 13 16 1007.0 - 0.0
01/08:00pm 12.4 7.0 4.4 58 3.6 NE 22 30 12 16 1006.7 - 0.0
01/07:30pm 12.7 8.1 5.4 61 3.4 NE 19 24 10 13 1007.2 - 0.0
01/07:00pm 11.1 7.1 6.8 75 2.0 ENE 17 20 9 11 1007.1 - 0.0
01/06:30pm 12.2 8.2 6.7 69 2.6 NE 17 20 9 11 1007.0 - 0.0
01/06:00pm 13.6 10.0 6.9 64 3.3 ENE 15 19 8 10 1007.0 1007.1 0.0
01/05:30pm 15.1 11.7 7.6 61 3.7 NE 15 17 8 9 1007.3 - 0.0
01/05:00pm 15.3 12.6 8.8 65 3.3 NNE 13 15 7 8 1007.9 - 0.0
01/04:30pm 15.8 12.4 7.8 59 4.0 NNE 15 20 8 11 1008.0 - 0.0
01/04:00pm 15.9 12.2 7.9 59 4.0 NNE 17 20 9 11 1008.2 - 0.0
01/03:30pm 15.9 12.9 7.9 59 4.0 NNE 13 19 7 10 1008.6 - 0.0
01/03:00pm 16.3 11.7 5.6 49 5.2 N 19 26 10 14 1009.0 1009.0 0.0
01/02:42pm 16.7 10.4 5.6 48 5.4 N 28 46 15 25 1009.4 - 0.0
01/02:30pm 17.0 9.6 4.0 42 6.1 N 32 48 17 26 1009.5 - 0.0
01/02:27pm 16.8 10.2 4.2 43 5.9 N 28 44 15 24 1009.4 - 0.0
01/02:00pm 17.1 13.3 9.0 59 4.2 NNW 19 26 10 14 1009.6 - 0.0
01/01:30pm 16.7 13.5 8.4 58 4.2 N 15 24 8 13 1009.7 - 0.0
01/01:00pm 17.5 13.6 7.3 51 5.1 N 17 24 9 13 1010.0 - 0.0
01/12:30pm 18.4 15.5 9.7 57 4.6 N 15 19 8 10 1010.6 - 0.0
01/12:00pm 17.4 14.2 9.8 61 4.0 N 17 22 9 12 1011.1 1011.1 0.0
01/11:30am 16.4 12.6 9.1 62 3.8 NNE 19 24 10 13 1011.5 - 0.0
01/11:00am 15.8 12.6 10.1 69 3.0 NNE 17 20 9 11 1011.9 - 0.0
01/10:30am 16.1 11.3 7.3 56 4.4 N 22 28 12 15 1012.2 - 0.0
01/10:00am 17.5 13.3 7.3 51 5.1 NNW 19 26 10 14 1012.7 - 0.0
01/09:30am 15.6 11.9 8.1 61 3.8 N 17 20 9 11 1012.8 - 0.0
01/09:00am 14.7 10.4 6.8 59 3.9 NNE 19 26 10 14 1013.0 1013.0 0.0
01/08:30am 13.8 9.5 6.9 63 3.4 NE 19 26 10 14 1012.9 - 0.0
01/08:00am 11.5 7.8 6.2 70 2.5 NE 15 20 8 11 1013.1 - 0.0
01/07:30am 10.5 7.1 5.9 73 2.1 ENE 13 17 7 9 1013.1 - 0.0
01/07:00am 10.3 6.8 5.5 72 2.2 NE 13 15 7 8 1013.1 - 0.0
01/06:30am 10.2 6.2 4.8 69 2.4 NNE 15 19 8 10 1012.8 - 0.0
01/06:00am 9.1 5.1 4.7 74 2.0 NE 15 19 8 10 1012.3 1012.3 0.0
01/05:30am 10.0 5.2 4.4 68 2.5 NE 19 26 10 14 1012.2 - 0.0
01/05:00am 10.2 5.2 4.8 69 2.4 NE 20 24 11 13 1012.3 - 0.0
01/04:30am 9.4 4.6 4.6 72 2.1 NE 19 24 10 13 1012.7 - 0.0
01/04:00am 8.7 4.3 4.5 75 1.9 NE 17 22 9 12 1012.9 - 0.0
01/03:30am 8.6 3.8 4.4 75 1.9 NE 19 20 10 11 1013.0 - 0.0
01/03:00am 9.6 4.8 4.8 72 2.2 NE 19 24 10 13 1013.5 1013.5 0.0
01/02:30am 9.5 4.6 4.9 73 2.1 NE 20 24 11 13 1013.9 - 0.0
01/02:00am 8.4 3.4 4.6 77 1.7 NE 20 24 11 13 1014.5 - 0.0
01/01:30am 8.6 3.6 4.4 75 1.9 NE 20 26 11 14 1014.6 - 0.0
01/01:00am 9.1 4.3 4.5 73 2.0 NE 19 24 10 13 1014.6 - 0.0
01/12:30am 8.9 4.0 4.3 73 2.0 NE 19 24 10 13 1014.9 - 0.0
01/12:00am 8.4 3.5 4.2 75 1.8 NE 19 24 10 13 1015.0 1015.1 0.0
 
Date/Time
CST
Tmp

°C
App
Tmp
°C
Dew
Point
°C
Rel
Hum
%
Delta-T

°C
Wind Press
QNH
hPa
Press
MSL
hPa
Rain
since
9 am
mm
Dir
 
Spd
km/h
Gust
km/h
Spd
kts
Gust
kts
31/11:30pm 8.7 3.8 4.3 74 1.9 NE 19 24 10 13 1015.4 - 0.0
31/11:00pm 8.8 4.0 4.8 76 1.8 NE 19 24 10 13 1015.7 - 0.0
31/10:30pm 8.4 3.6 4.8 78 1.6 NE 19 24 10 13 1016.1 - 0.0
31/10:00pm 8.3 3.9 4.9 79 1.5 ENE 17 20 9 11 1016.4 - 0.0
31/09:30pm 8.5 4.1 4.9 78 1.6 NE 17 20 9 11 1016.5 - 0.0
31/09:00pm 8.5 4.2 5.3 80 1.4 ENE 17 19 9 10 1016.6 1016.8 0.0
31/08:30pm 8.0 3.7 5.3 83 1.2 ENE 17 20 9 11 1016.8 - 0.0
31/08:00pm 6.8 2.7 4.5 85 1.0 NE 15 17 8 9 1016.8 - 0.0
31/07:30pm 7.4 3.7 4.7 83 1.2 NE 13 13 7 7 1016.5 - 0.0
31/07:00pm 7.5 3.4 4.6 82 1.3 ENE 15 17 8 9 1016.2 - 0.0
31/06:30pm 8.5 4.6 5.3 80 1.4 NE 15 17 8 9 1016.3 - 0.0

Latest Capital City Observations: Canberra | Sydney | Melbourne | Brisbane | Adelaide | Perth | Hobart | Darwin

Other Formats:

Comma delimited format used in spreadsheet applications
http://www.bom.gov.au/fwo/IDS60901/IDS60901.95671.axf

JavaScript Object Notation format (JSON) in row-major order
http://www.bom.gov.au/fwo/IDS60901/IDS60901.95671.json